Terminal Aerodrome Forecast
Issued by NWS

Home | Current Version | Previous Version | Text Only | Print | Product List | Glossary On
Versions: 1 2 3 4 5 6 7 8 9 10 11 12 13 14
000
FTUS45 KGJT 211134
TAFDRO
TAF
KDRO 211134Z 2112/2212 13004KT P6SM FEW110 SCT200
     FM211700 22004KT P6SM FEW110 SCT200
     FM212000 28008KT P6SM VCTS SCT100CB BKN150
     FM212300 34009KT P6SM VCTS SCT080CB BKN110
     FM220200 36009KT P6SM SCT070 BKN120
     FM220500 04005KT P6SM SCT070 BKN100=

USA.gov is the U.S. government's official web portal to all federal, state and local government web resources and services.